createdAt,value
2023-02-08T00:00:09.955Z,40.35
2023-02-08T00:01:14.966Z,42.25
2023-02-08T00:02:18.371Z,41.67
2023-02-08T00:03:22.156Z,41.75
2023-02-08T00:04:26.274Z,42.50
2023-02-08T00:05:28.940Z,42.75
2023-02-08T00:06:31.004Z,43.75
2023-02-08T00:07:33.758Z,41.63
2023-02-08T00:08:36.222Z,42.90
2023-02-08T00:09:38.922Z,42.28
2023-02-08T00:10:40.927Z,42.25
2023-02-08T00:11:43.736Z,42.80
2023-02-08T00:12:45.439Z,41.58
2023-02-08T00:13:48.073Z,41.28
2023-02-08T00:14:49.828Z,43.13
2023-02-08T00:15:54.614Z,41.65
2023-02-08T00:16:56.330Z,41.50
2023-02-08T00:18:00.497Z,41.63
2023-02-08T00:19:02.137Z,40.95
2023-02-08T00:20:05.346Z,42.45
2023-02-08T00:21:09.075Z,41.60
2023-02-08T00:22:11.877Z,40.38
2023-02-08T00:23:14.595Z,41.55
2023-02-08T00:24:17.566Z,41.47
2023-02-08T00:25:19.299Z,41.40
2023-02-08T00:26:21.967Z,41.00
2023-02-08T00:27:23.736Z,40.75
2023-02-08T00:28:26.575Z,41.88
2023-02-08T00:29:28.287Z,40.80
2023-02-08T00:30:30.967Z,41.08
2023-02-08T00:31:32.755Z,41.92
2023-02-08T00:32:35.878Z,41.53
2023-02-08T00:33:39.873Z,42.28
2023-02-08T00:34:41.695Z,41.55
2023-02-08T00:35:44.397Z,41.70
2023-02-08T00:36:46.094Z,40.58
2023-02-08T00:37:48.711Z,39.72
2023-02-08T00:38:50.505Z,40.65
2023-02-08T00:39:53.432Z,42.78
2023-02-08T00:40:55.306Z,42.17
2023-02-08T00:41:57.966Z,42.53
2023-02-08T00:42:59.562Z,41.85
2023-02-08T00:44:02.604Z,41.35
2023-02-08T00:45:05.070Z,40.72
2023-02-08T00:46:08.180Z,42.17
2023-02-08T00:47:09.866Z,42.63
2023-02-08T00:48:12.542Z,40.95
2023-02-08T00:49:16.330Z,41.13
2023-02-08T00:50:18.973Z,40.25
2023-02-08T00:51:20.736Z,41.15
2023-02-08T00:52:23.477Z,40.10
2023-02-08T00:53:25.346Z,40.67
2023-02-08T00:54:28.060Z,39.88
2023-02-08T00:55:29.870Z,40.65
2023-02-08T00:56:32.785Z,41.28
2023-02-08T00:57:35.753Z,40.83
2023-02-08T00:58:39.171Z,40.28
2023-02-08T00:59:40.819Z,41.47
2023-02-08T01:00:43.482Z,40.28
2023-02-08T01:01:45.695Z,41.80
2023-02-08T01:02:48.305Z,42.38
2023-02-08T01:03:49.958Z,42.47
2023-02-08T01:04:53.896Z,43.47
2023-02-08T01:06:00.799Z,41.75
2023-02-08T01:07:03.495Z,40.90
2023-02-08T01:08:07.992Z,43.05
2023-02-08T01:09:10.615Z,43.15
2023-02-08T01:10:12.903Z,41.97
2023-02-08T01:11:18.737Z,44.40
2023-02-08T01:12:20.380Z,44.03
2023-02-08T01:13:23.139Z,43.53
2023-02-08T01:14:25.529Z,42.67
2023-02-08T01:15:28.545Z,41.92
2023-02-08T01:16:32.326Z,41.63
2023-02-08T01:17:35.152Z,43.75
2023-02-08T01:18:37.638Z,42.58
2023-02-08T01:19:42.600Z,43.30
2023-02-08T01:20:45.806Z,41.95
2023-02-08T01:21:49.211Z,44.22
2023-02-08T01:22:50.987Z,41.75
2023-02-08T01:23:53.862Z,43.72
2023-02-08T01:24:55.529Z,42.15
2023-02-08T01:25:58.176Z,43.38
2023-02-08T01:27:01.225Z,43.17
2023-02-08T01:28:02.907Z,43.38
2023-02-08T01:29:05.814Z,43.15
2023-02-08T01:30:09.444Z,42.63
2023-02-08T01:31:14.485Z,42.67
2023-02-08T01:32:17.233Z,42.53
2023-02-08T01:33:18.965Z,42.03
2023-02-08T01:34:21.841Z,43.55
2023-02-08T01:35:26.629Z,41.47
2023-02-08T01:36:32.356Z,42.65
2023-02-08T01:37:36.911Z,40.08
2023-02-08T01:38:40.277Z,40.90
2023-02-08T01:39:41.818Z,42.53
2023-02-08T01:40:44.445Z,40.70
2023-02-08T01:41:47.134Z,41.47
2023-02-08T01:42:49.768Z,43.20
2023-02-08T01:44:43.246Z,40.97
2023-02-08T01:45:44.928Z,37.85
2023-02-08T01:46:51.208Z,37.05
2023-02-08T01:47:56.709Z,38.80
2023-02-08T01:49:03.430Z,38.60
2023-02-08T01:50:05.545Z,37.40
2023-02-08T01:51:13.565Z,38.85
2023-02-08T01:52:20.550Z,40.33
2023-02-08T01:53:26.791Z,39.47
2023-02-08T01:54:32.716Z,37.05
2023-02-08T01:55:39.822Z,37.78
2023-02-08T01:56:46.002Z,37.22
2023-02-08T01:57:52.725Z,37.97
2023-02-08T01:59:00.992Z,39.40
2023-02-08T02:00:08.595Z,39.10
2023-02-08T02:01:14.572Z,38.85
2023-02-08T02:02:20.905Z,37.25
2023-02-08T02:03:23.886Z,38.47
2023-02-08T02:04:27.316Z,40.47
2023-02-08T02:05:34.410Z,38.30
2023-02-08T02:06:40.282Z,38.83
2023-02-08T02:07:43.943Z,38.72
2023-02-08T02:08:52.854Z,38.08
2023-02-08T02:10:03.143Z,38.30
2023-02-08T02:11:06.042Z,28.58
2023-02-08T02:12:09.108Z,37.45
2023-02-08T02:13:14.820Z,37.13
2023-02-08T02:14:17.135Z,36.47
2023-02-08T02:15:19.901Z,35.35
2023-02-08T02:16:21.862Z,37.05
2023-02-08T02:17:24.729Z,35.38
2023-02-08T02:18:29.178Z,38.05
2023-02-08T02:19:41.232Z,37.05
2023-02-08T02:21:02.651Z,36.65
2023-02-08T02:22:20.860Z,37.17
2023-02-08T02:24:08.501Z,35.10
2023-02-08T02:25:43.904Z,34.40
2023-02-08T02:27:15.044Z,34.13
2023-02-08T02:28:44.424Z,34.90
2023-02-08T02:30:10.236Z,33.75
2023-02-08T02:31:31.221Z,35.92
2023-02-08T02:32:46.148Z,36.08
2023-02-08T02:33:59.356Z,36.00
2023-02-08T02:35:08.161Z,35.30
2023-02-08T02:36:20.063Z,36.90
2023-02-08T02:37:32.124Z,37.80
2023-02-08T02:38:46.435Z,37.13
2023-02-08T02:39:59.011Z,35.50
2023-02-08T02:41:14.383Z,37.50
2023-02-08T02:42:46.210Z,34.42
2023-02-08T02:43:54.238Z,35.78
2023-02-08T02:45:11.512Z,36.10
2023-02-08T02:46:22.706Z,35.42
2023-02-08T02:47:42.598Z,36.15
2023-02-08T02:48:50.506Z,26.05
2023-02-08T02:49:58.589Z,35.63
2023-02-08T02:51:07.208Z,34.90
2023-02-08T02:52:16.080Z,35.20
2023-02-08T02:53:23.697Z,36.60
2023-02-08T02:54:33.251Z,38.13
2023-02-08T02:55:44.220Z,36.80
2023-02-08T02:56:50.004Z,34.65
2023-02-08T02:57:55.164Z,35.85
2023-02-08T02:59:03.024Z,36.05
2023-02-08T03:00:08.606Z,35.55
2023-02-08T03:01:11.344Z,35.53
2023-02-08T03:02:14.145Z,35.72
2023-02-08T03:03:22.365Z,35.25
2023-02-08T03:04:50.161Z,37.67
2023-02-08T03:05:55.447Z,34.53
2023-02-08T03:07:06.469Z,35.50
2023-02-08T03:08:27.907Z,35.03
2023-02-08T03:09:47.786Z,37.35
2023-02-08T03:11:02.006Z,35.10
2023-02-08T03:12:16.858Z,37.08
2023-02-08T03:13:28.439Z,36.03
2023-02-08T03:14:39.353Z,37.50
2023-02-08T03:15:52.880Z,37.05
2023-02-08T03:17:35.237Z,36.85
2023-02-08T03:18:51.750Z,35.42
2023-02-08T03:20:05.296Z,34.40
2023-02-08T03:21:11.601Z,35.53
2023-02-08T03:22:17.630Z,34.60
2023-02-08T03:23:24.453Z,34.90
2023-02-08T03:24:33.967Z,37.60
2023-02-08T03:25:45.636Z,38.25
2023-02-08T03:26:54.253Z,37.25
2023-02-08T03:28:06.440Z,36.30
2023-02-08T03:29:17.994Z,34.85
2023-02-08T03:30:29.298Z,35.80
2023-02-08T03:31:38.400Z,35.22
2023-02-08T03:32:44.751Z,35.85
2023-02-08T03:33:53.299Z,37.30
2023-02-08T03:35:01.944Z,35.95
2023-02-08T03:36:07.933Z,33.75
2023-02-08T03:37:15.913Z,37.08
2023-02-08T03:38:22.812Z,35.50
2023-02-08T03:39:28.814Z,38.95
2023-02-08T03:40:36.237Z,36.45
2023-02-08T03:41:43.064Z,36.47
2023-02-08T03:42:48.879Z,37.55
2023-02-08T03:43:54.810Z,39.28
2023-02-08T03:45:02.673Z,37.63
2023-02-08T03:46:11.014Z,36.33
2023-02-08T03:47:18.590Z,36.50
2023-02-08T03:48:25.428Z,37.75
2023-02-08T03:49:38.410Z,36.28
2023-02-08T03:50:42.898Z,36.85
2023-02-08T03:51:47.493Z,37.38
2023-02-08T03:52:52.813Z,36.22
2023-02-08T03:53:57.615Z,36.08
2023-02-08T03:55:05.144Z,34.92
2023-02-08T03:56:11.044Z,33.08
2023-02-08T03:57:18.918Z,36.13
2023-02-08T03:58:26.595Z,35.15
2023-02-08T03:59:33.577Z,35.90
2023-02-08T04:00:39.990Z,34.67
2023-02-08T04:01:44.854Z,36.00
2023-02-08T04:02:57.470Z,35.78
2023-02-08T04:04:00.913Z,35.95
2023-02-08T04:05:06.391Z,36.30
2023-02-08T04:06:07.998Z,35.88
2023-02-08T04:07:11.143Z,34.13
2023-02-08T04:08:12.820Z,38.08
2023-02-08T04:09:15.875Z,36.28
2023-02-08T04:10:17.916Z,35.33
2023-02-08T04:11:20.811Z,35.17
2023-02-08T04:12:22.492Z,36.80
2023-02-08T04:13:24.991Z,36.80
2023-02-08T04:14:26.615Z,36.88
2023-02-08T04:15:29.312Z,34.45
2023-02-08T04:16:31.082Z,36.00
2023-02-08T04:17:33.895Z,37.92
2023-02-08T04:18:35.432Z,33.90
2023-02-08T04:19:39.718Z,36.05
2023-02-08T04:20:42.766Z,35.65
2023-02-08T04:21:45.416Z,35.85
2023-02-08T04:22:46.988Z,35.13
2023-02-08T04:23:49.496Z,37.38
2023-02-08T04:24:51.019Z,35.90
2023-02-08T04:25:56.884Z,37.55
2023-02-08T04:26:58.539Z,38.38
2023-02-08T04:28:01.380Z,38.47
2023-02-08T04:29:03.238Z,38.42
2023-02-08T04:30:06.787Z,37.50
2023-02-08T04:31:08.498Z,36.45
2023-02-08T04:32:11.916Z,38.15
2023-02-08T04:33:14.980Z,36.33
2023-02-08T04:34:17.522Z,38.80
2023-02-08T04:35:19.194Z,37.15
2023-02-08T04:36:23.281Z,36.47
2023-02-08T04:37:24.928Z,36.78
2023-02-08T04:38:27.681Z,37.15
2023-02-08T04:39:29.573Z,37.33
2023-02-08T04:40:32.675Z,35.35
2023-02-08T04:41:34.235Z,34.88
2023-02-08T04:42:36.819Z,38.00
2023-02-08T04:43:38.413Z,36.72
2023-02-08T04:44:41.028Z,39.17
2023-02-08T04:45:42.708Z,36.35
2023-02-08T04:46:45.540Z,36.53
2023-02-08T04:47:47.267Z,35.95
2023-02-08T04:48:49.865Z,39.70
2023-02-08T04:49:51.551Z,37.08
2023-02-08T04:50:56.393Z,37.95
2023-02-08T04:51:59.398Z,35.33
2023-02-08T04:53:02.000Z,36.33
2023-02-08T04:54:03.560Z,35.63
2023-02-08T04:55:06.910Z,35.10
2023-02-08T04:56:08.614Z,34.90
2023-02-08T04:57:13.574Z,35.50
2023-02-08T04:58:15.230Z,36.00
2023-02-08T04:59:18.410Z,35.20
2023-02-08T05:00:20.105Z,34.22
2023-02-08T05:01:22.698Z,36.25
2023-02-08T05:02:24.232Z,36.45
2023-02-08T05:03:26.714Z,34.78
2023-02-08T05:04:28.389Z,36.00
2023-02-08T05:05:31.861Z,34.28
2023-02-08T05:06:33.847Z,35.30
2023-02-08T05:07:37.893Z,34.92
2023-02-08T05:08:39.429Z,35.00
2023-02-08T05:09:42.190Z,35.45
2023-02-08T05:10:45.409Z,35.00
2023-02-08T05:11:47.917Z,36.20
2023-02-08T05:12:49.473Z,35.15
2023-02-08T05:13:52.824Z,35.17
2023-02-08T05:14:54.480Z,36.05
2023-02-08T05:15:57.084Z,35.22
2023-02-08T05:16:58.765Z,34.60
2023-02-08T05:18:04.284Z,36.63
2023-02-08T05:19:06.828Z,35.60
2023-02-08T05:20:10.027Z,35.60
2023-02-08T05:21:12.960Z,33.63
2023-02-08T05:22:14.630Z,35.17
2023-02-08T05:23:18.628Z,34.10
2023-02-08T05:24:20.235Z,34.25
2023-02-08T05:25:23.137Z,32.40
2023-02-08T05:26:24.783Z,32.92
2023-02-08T05:27:27.521Z,32.00
2023-02-08T05:28:29.139Z,31.63
2023-02-08T05:29:33.445Z,34.60
2023-02-08T05:30:35.067Z,32.58
2023-02-08T05:31:37.966Z,30.38
2023-02-08T05:32:39.710Z,32.33
2023-02-08T05:33:42.465Z,32.38
2023-02-08T05:34:44.391Z,31.38
2023-02-08T05:35:47.373Z,31.77
2023-02-08T05:36:48.986Z,31.48
2023-02-08T05:37:51.543Z,30.55
2023-02-08T05:38:54.766Z,32.45
2023-02-08T05:39:57.243Z,31.80
2023-02-08T05:41:01.696Z,32.63
2023-02-08T05:42:04.810Z,31.25
2023-02-08T05:43:06.429Z,31.55
2023-02-08T05:44:08.997Z,30.67
2023-02-08T05:45:10.670Z,31.25
2023-02-08T05:46:13.216Z,33.20
2023-02-08T05:47:18.614Z,32.67
2023-02-08T05:48:20.495Z,33.28
2023-02-08T05:49:23.183Z,32.45
2023-02-08T05:50:24.884Z,33.83
2023-02-08T05:51:27.891Z,33.67
2023-02-08T05:52:29.509Z,33.67
2023-02-08T05:53:32.381Z,33.85
2023-02-08T05:54:35.660Z,33.95
2023-02-08T05:55:38.309Z,33.50
2023-02-08T05:56:39.829Z,33.90
2023-02-08T05:57:42.372Z,33.95
2023-02-08T05:58:43.983Z,31.13
2023-02-08T05:59:46.642Z,33.63
2023-02-08T06:00:48.399Z,32.42
2023-02-08T06:01:51.264Z,32.97
2023-02-08T06:02:53.114Z,34.47
2023-02-08T06:03:55.794Z,33.00
2023-02-08T06:04:58.310Z,33.75
2023-02-08T06:06:00.826Z,33.65
2023-02-08T06:07:03.428Z,34.63
2023-02-08T06:08:05.929Z,32.03
2023-02-08T06:09:08.429Z,32.08
2023-02-08T06:10:11.738Z,34.25
2023-02-08T06:11:14.543Z,34.28
2023-02-08T06:12:16.082Z,34.47
2023-02-08T06:13:18.594Z,33.55
2023-02-08T06:14:20.491Z,33.63
2023-02-08T06:15:23.224Z,34.92
2023-02-08T06:16:28.705Z,34.60
2023-02-08T06:17:30.264Z,32.92
2023-02-08T06:18:32.937Z,34.95
2023-02-08T06:19:34.506Z,33.97
2023-02-08T06:20:37.073Z,33.83
2023-02-08T06:21:39.627Z,34.50
2023-02-08T06:22:42.268Z,36.58
2023-02-08T06:23:44.901Z,34.53
2023-02-08T06:24:47.832Z,33.28
2023-02-08T06:25:52.655Z,33.85
2023-02-08T06:26:54.309Z,33.83
2023-02-08T06:27:57.575Z,32.72
2023-02-08T06:28:59.302Z,33.38
2023-02-08T06:30:01.800Z,33.67
2023-02-08T06:31:03.811Z,34.15
2023-02-08T06:32:06.962Z,33.33
2023-02-08T06:33:08.641Z,34.53
2023-02-08T06:34:11.264Z,34.80
2023-02-08T06:35:14.074Z,33.83
2023-02-08T06:36:15.749Z,35.22
2023-02-08T06:37:18.911Z,34.63
2023-02-08T06:38:20.754Z,34.60
2023-02-08T06:39:23.802Z,36.05
2023-02-08T06:40:25.586Z,33.60
2023-02-08T06:41:29.529Z,41.70
2023-02-08T06:42:32.059Z,38.45
2023-02-08T06:43:33.756Z,38.15
2023-02-08T06:44:36.526Z,34.28
2023-02-08T06:45:39.179Z,33.13
2023-02-08T06:46:41.909Z,34.10
2023-02-08T06:47:43.739Z,35.38
2023-02-08T06:48:46.364Z,35.13
2023-02-08T06:49:48.983Z,35.00
2023-02-08T06:50:52.296Z,34.15
2023-02-08T06:51:55.043Z,33.97
2023-02-08T06:52:57.842Z,33.50
2023-02-08T06:53:59.522Z,34.50
2023-02-08T06:55:02.090Z,34.80
2023-02-08T06:56:03.995Z,34.85
2023-02-08T06:57:08.406Z,34.55
2023-02-08T06:58:11.222Z,35.17
2023-02-08T06:59:13.817Z,34.17
2023-02-08T07:00:16.781Z,36.00
2023-02-08T07:01:20.442Z,36.80
2023-02-08T07:02:23.363Z,35.60
2023-02-08T07:03:24.894Z,36.03
2023-02-08T07:04:27.531Z,36.97
2023-02-08T07:05:30.116Z,35.10
2023-02-08T07:06:32.984Z,35.88
2023-02-08T07:07:34.622Z,35.72
2023-02-08T07:08:37.199Z,33.13
2023-02-08T07:09:39.954Z,33.25
2023-02-08T07:10:41.792Z,35.47
2023-02-08T07:11:47.446Z,35.55
2023-02-08T07:12:51.285Z,34.85
2023-02-08T07:13:54.497Z,35.55
2023-02-08T07:14:57.084Z,33.90
2023-02-08T07:15:58.713Z,35.10
2023-02-08T07:17:01.487Z,32.80
2023-02-08T07:18:04.375Z,34.20
2023-02-08T07:19:08.058Z,33.13
2023-02-08T07:20:14.320Z,34.05
2023-02-08T07:21:16.150Z,35.67
2023-02-08T07:22:18.844Z,32.80
2023-02-08T07:23:20.408Z,34.53
2023-02-08T07:24:23.473Z,34.30
2023-02-08T07:25:26.251Z,34.33
2023-02-08T07:26:28.915Z,32.10
2023-02-08T07:27:30.517Z,34.47
2023-02-08T07:28:34.634Z,33.80
2023-02-08T07:29:37.876Z,34.13
2023-02-08T07:30:40.962Z,34.70
2023-02-08T07:31:43.838Z,32.38
2023-02-08T07:32:45.526Z,31.17
2023-02-08T07:33:48.088Z,33.72
2023-02-08T07:34:50.803Z,35.20
2023-02-08T07:35:53.627Z,35.30
2023-02-08T07:36:56.335Z,35.30
2023-02-08T07:38:02.436Z,35.28
2023-02-08T07:39:05.210Z,34.25
2023-02-08T07:40:08.509Z,36.33
2023-02-08T07:41:13.434Z,36.25
2023-02-08T07:42:16.004Z,36.65
2023-02-08T07:43:18.519Z,36.08
2023-02-08T07:44:21.480Z,37.13
2023-02-08T07:45:24.204Z,34.95
2023-02-08T07:46:26.930Z,36.55
2023-02-08T07:47:31.970Z,36.55
2023-02-08T07:48:34.080Z,36.20
2023-02-08T07:49:36.908Z,35.63
2023-02-08T07:50:38.667Z,35.47
2023-02-08T07:51:41.396Z,36.30
2023-02-08T07:52:45.849Z,35.05
2023-02-08T07:53:48.473Z,34.83
2023-02-08T07:54:51.008Z,34.25
2023-02-08T07:55:53.529Z,37.35
2023-02-08T07:56:55.561Z,35.92
2023-02-08T07:57:58.664Z,36.75
2023-02-08T07:59:00.258Z,35.65
2023-02-08T08:00:05.808Z,34.75
2023-02-08T08:01:21.297Z,34.15
2023-02-08T08:02:24.882Z,33.97
2023-02-08T08:03:27.560Z,33.15
2023-02-08T08:04:30.110Z,34.42
2023-02-08T08:05:33.787Z,37.13
2023-02-08T08:06:36.448Z,35.45
2023-02-08T08:07:39.092Z,34.22
2023-02-08T08:08:42.384Z,35.28
2023-02-08T08:09:43.975Z,35.13
2023-02-08T08:10:46.535Z,36.10
2023-02-08T08:11:49.128Z,34.65
2023-02-08T08:12:51.656Z,35.63
2023-02-08T08:13:54.524Z,35.83
2023-02-08T08:14:57.114Z,35.28
2023-02-08T08:16:01.112Z,34.45
2023-02-08T08:17:03.583Z,35.08
2023-02-08T08:18:06.171Z,34.22
2023-02-08T08:19:08.697Z,34.40
2023-02-08T08:20:11.312Z,34.08
2023-02-08T08:21:15.330Z,35.30
2023-02-08T08:22:21.055Z,34.67
2023-02-08T08:23:23.885Z,34.50
2023-02-08T08:24:27.002Z,36.03
2023-02-08T08:25:28.733Z,35.58
2023-02-08T08:26:31.371Z,35.30
2023-02-08T08:27:33.052Z,34.78
2023-02-08T08:28:35.702Z,35.70
2023-02-08T08:29:38.234Z,35.90
2023-02-08T08:30:44.030Z,36.20
2023-02-08T08:31:48.270Z,35.60
2023-02-08T08:32:49.829Z,35.00
2023-02-08T08:33:52.607Z,35.90
2023-02-08T08:34:56.659Z,34.88
2023-02-08T08:35:59.219Z,33.38
2023-02-08T08:37:03.032Z,34.85
2023-02-08T08:38:05.611Z,36.25
2023-02-08T08:39:08.169Z,34.38
2023-02-08T08:40:11.613Z,34.75
2023-02-08T08:41:17.080Z,36.33
2023-02-08T08:42:21.032Z,36.47
2023-02-08T08:43:23.765Z,36.03
2023-02-08T08:44:28.320Z,34.95
2023-02-08T08:45:30.107Z,35.78
2023-02-08T08:46:32.729Z,34.92
2023-02-08T08:47:36.696Z,35.58
2023-02-08T08:48:39.700Z,34.85
2023-02-08T08:49:42.849Z,36.33
2023-02-08T08:50:44.528Z,33.83
2023-02-08T08:51:47.461Z,35.10
2023-02-08T08:52:50.174Z,37.53
2023-02-08T08:53:52.965Z,33.83
2023-02-08T08:54:54.572Z,32.50
2023-02-08T08:55:57.200Z,35.38
2023-02-08T08:57:04.226Z,35.28
2023-02-08T08:58:06.853Z,35.15
2023-02-08T08:59:11.753Z,34.70
2023-02-08T09:00:15.579Z,36.17
2023-02-08T09:01:18.415Z,35.40
2023-02-08T09:02:21.034Z,35.28
2023-02-08T09:03:25.010Z,34.47
2023-02-08T09:04:28.110Z,35.25
2023-02-08T09:05:30.962Z,34.47
2023-02-08T09:06:33.729Z,36.95
2023-02-08T09:07:35.603Z,35.47
2023-02-08T09:08:38.330Z,34.58
2023-02-08T09:09:41.825Z,36.22
2023-02-08T09:10:46.941Z,34.53
2023-02-08T09:11:50.784Z,34.83
2023-02-08T09:12:54.013Z,35.55
2023-02-08T09:13:56.367Z,34.15
2023-02-08T09:14:59.139Z,36.67
2023-02-08T09:16:06.156Z,37.30
2023-02-08T09:17:09.110Z,36.90
2023-02-08T09:18:11.710Z,35.78
2023-02-08T09:19:16.595Z,37.22
2023-02-08T09:20:19.524Z,36.83
2023-02-08T09:21:25.348Z,36.00
2023-02-08T09:22:29.242Z,35.92
2023-02-08T09:23:33.628Z,35.47
2023-02-08T09:24:36.777Z,37.03
2023-02-08T09:25:41.472Z,38.03
2023-02-08T09:26:46.900Z,36.47
2023-02-08T09:27:49.826Z,37.35
2023-02-08T09:28:52.509Z,37.03
2023-02-08T09:29:56.717Z,37.92
2023-02-08T09:31:11.912Z,36.92
2023-02-08T09:32:24.623Z,38.15
2023-02-08T09:33:27.579Z,38.92
2023-02-08T09:34:33.835Z,37.75
2023-02-08T09:35:35.702Z,38.13
2023-02-08T09:36:43.509Z,38.13
2023-02-08T09:37:46.272Z,36.80
2023-02-08T09:38:51.702Z,36.35
2023-02-08T09:39:54.446Z,36.60
2023-02-08T09:41:10.980Z,38.28
2023-02-08T09:42:23.815Z,37.53
2023-02-08T09:43:35.583Z,36.88
2023-02-08T09:44:48.346Z,37.47
2023-02-08T09:46:00.175Z,37.47
2023-02-08T09:47:11.158Z,36.33
2023-02-08T09:48:22.808Z,28.98
2023-02-08T09:49:29.681Z,38.97
2023-02-08T09:50:41.161Z,36.75
2023-02-08T09:51:48.655Z,37.83
2023-02-08T09:52:59.232Z,37.85
2023-02-08T09:54:07.212Z,29.92
2023-02-08T09:55:31.092Z,38.97
2023-02-08T09:56:40.439Z,36.83
2023-02-08T09:57:46.814Z,40.58
2023-02-08T09:58:52.853Z,40.47
2023-02-08T09:59:59.265Z,40.45
2023-02-08T10:01:05.933Z,39.97
2023-02-08T10:02:19.502Z,41.33
2023-02-08T10:03:34.834Z,39.50
2023-02-08T10:04:45.798Z,39.97
2023-02-08T10:05:51.129Z,39.08
2023-02-08T10:06:53.885Z,39.28
2023-02-08T10:07:56.582Z,40.10
2023-02-08T10:09:03.162Z,41.42
2023-02-08T10:10:08.142Z,40.58
2023-02-08T10:11:28.351Z,39.88
2023-02-08T10:12:44.107Z,31.58
2023-02-08T10:14:05.386Z,39.28
2023-02-08T10:15:23.102Z,39.17
2023-02-08T10:16:43.828Z,38.67
2023-02-08T10:18:02.466Z,30.50
2023-02-08T10:19:15.794Z,39.83
2023-02-08T10:20:34.443Z,39.63
2023-02-08T10:21:53.539Z,39.58
2023-02-08T10:23:05.142Z,37.92
2023-02-08T10:24:35.280Z,40.40
2023-02-08T10:26:07.895Z,29.93
2023-02-08T10:27:17.300Z,38.13
2023-02-08T10:28:50.856Z,38.78
2023-02-08T10:30:07.267Z,37.83
2023-02-08T10:31:21.159Z,38.63
2023-02-08T10:32:40.995Z,37.97
2023-02-08T10:33:51.548Z,39.30
2023-02-08T10:34:59.109Z,29.60
2023-02-08T10:36:01.939Z,38.42
2023-02-08T10:37:15.499Z,39.72
2023-02-08T10:38:25.404Z,38.38
2023-02-08T10:39:31.903Z,29.88
2023-02-08T10:40:39.489Z,38.97
2023-02-08T10:41:42.715Z,38.38
2023-02-08T10:42:53.113Z,38.67
2023-02-08T10:44:04.014Z,37.97
2023-02-08T10:46:36.791Z,28.40
2023-02-08T10:47:45.875Z,37.00
2023-02-08T10:49:01.668Z,38.88
2023-02-08T10:50:07.700Z,35.80
2023-02-08T10:51:13.719Z,38.35
2023-02-08T10:52:18.332Z,37.45
2023-02-08T10:53:21.880Z,37.25
2023-02-08T10:54:24.712Z,38.10
2023-02-08T10:55:28.056Z,37.47
2023-02-08T10:56:41.022Z,39.17
2023-02-08T10:57:48.407Z,38.78
2023-02-08T10:58:51.284Z,38.95
2023-02-08T10:59:58.858Z,38.25
2023-02-08T11:01:01.597Z,37.00
2023-02-08T11:02:18.935Z,35.08
2023-02-08T11:03:24.349Z,37.53
2023-02-08T11:04:27.318Z,35.75
2023-02-08T11:05:35.389Z,36.90
2023-02-08T11:06:41.340Z,37.58
2023-02-08T11:07:46.307Z,36.95
2023-02-08T11:08:56.284Z,36.75
2023-02-08T11:10:22.480Z,37.03
2023-02-08T11:11:27.019Z,34.83
2023-02-08T11:12:32.031Z,34.28
2023-02-08T11:13:43.526Z,36.50
2023-02-08T11:14:54.074Z,36.53
2023-02-08T11:15:59.193Z,35.20
2023-02-08T11:17:05.375Z,34.53
2023-02-08T11:18:18.555Z,34.38
2023-02-08T11:19:30.513Z,34.47
2023-02-08T11:20:36.847Z,35.30
2023-02-08T11:21:42.442Z,36.10
2023-02-08T11:22:47.823Z,35.65
2023-02-08T11:23:53.705Z,35.63
2023-02-08T11:24:59.183Z,36.78
2023-02-08T11:26:18.899Z,36.47
2023-02-08T11:27:33.477Z,36.50
2023-02-08T11:28:36.478Z,36.35
2023-02-08T11:29:39.228Z,35.15
2023-02-08T11:30:43.337Z,35.25
2023-02-08T11:32:03.516Z,35.08
2023-02-08T11:33:24.247Z,33.08
2023-02-08T11:34:28.891Z,33.97
2023-02-08T11:35:33.885Z,33.28
2023-02-08T11:36:38.541Z,29.17
2023-02-08T11:37:49.452Z,30.17
2023-02-08T11:38:54.561Z,28.73
2023-02-08T11:39:59.064Z,30.55
2023-02-08T11:41:15.835Z,29.88
2023-02-08T11:42:22.214Z,27.95
2023-02-08T11:43:27.331Z,29.60
2023-02-08T11:44:33.015Z,29.08
2023-02-08T11:45:41.414Z,29.17
2023-02-08T11:46:49.261Z,28.90
2023-02-08T11:47:53.200Z,27.05
2023-02-08T11:48:57.352Z,27.13
2023-02-08T11:50:04.843Z,26.58
2023-02-08T11:51:08.510Z,29.55
2023-02-08T11:52:26.780Z,27.92
2023-02-08T11:53:37.923Z,28.00
2023-02-08T11:54:43.183Z,29.83
2023-02-08T11:55:46.305Z,28.20
2023-02-08T11:57:02.939Z,26.75
2023-02-08T11:58:18.945Z,27.30
2023-02-08T11:59:27.922Z,27.75
2023-02-08T12:00:39.314Z,27.75
2023-02-08T12:01:43.629Z,28.55
2023-02-08T12:02:46.992Z,27.05
2023-02-08T12:03:51.542Z,26.80
2023-02-08T12:04:54.282Z,28.15
2023-02-08T12:06:10.681Z,27.55
2023-02-08T12:07:25.710Z,26.13
2023-02-08T12:08:40.528Z,27.73
2023-02-08T12:10:10.097Z,28.20
2023-02-08T12:11:23.816Z,27.65
2023-02-08T12:12:37.192Z,26.48
2023-02-08T12:14:09.607Z,27.65
2023-02-08T12:15:24.008Z,26.75
2023-02-08T12:16:44.432Z,29.50
2023-02-08T12:18:06.094Z,29.88
2023-02-08T12:19:41.188Z,30.65
2023-02-08T12:20:47.141Z,31.17
2023-02-08T12:21:56.767Z,29.98
2023-02-08T12:23:15.357Z,31.77
2023-02-08T12:24:28.209Z,31.27
2023-02-08T12:25:43.727Z,31.73
2023-02-08T12:27:06.912Z,31.63
2023-02-08T12:28:21.564Z,31.15
2023-02-08T12:29:48.524Z,29.65
2023-02-08T12:31:00.694Z,30.20
2023-02-08T12:32:21.299Z,30.40
2023-02-08T12:33:36.909Z,29.65
2023-02-08T12:35:01.310Z,30.42
2023-02-08T12:36:13.276Z,27.60
2023-02-08T12:37:48.146Z,27.50
2023-02-08T12:39:35.890Z,25.80
2023-02-08T12:40:52.766Z,27.05
2023-02-08T12:42:09.827Z,25.40
2023-02-08T12:43:25.221Z,26.88
2023-02-08T12:44:34.642Z,26.80
2023-02-08T12:46:04.829Z,26.55
2023-02-08T12:47:24.328Z,25.08
2023-02-08T12:48:46.362Z,26.15
2023-02-08T12:50:02.017Z,24.73
2023-02-08T12:51:13.930Z,23.85
2023-02-08T12:52:28.326Z,23.20
2023-02-08T12:53:34.986Z,22.65
2023-02-08T12:54:42.573Z,23.50
2023-02-08T12:55:51.360Z,23.98
2023-02-08T12:57:01.993Z,22.23
2023-02-08T12:58:23.290Z,22.25
2023-02-08T12:59:29.782Z,21.80
2023-02-08T13:00:38.783Z,22.13
2023-02-08T13:01:45.714Z,21.98
2023-02-08T13:02:57.769Z,20.88
2023-02-08T13:04:07.431Z,20.92
2023-02-08T13:05:17.347Z,20.70
2023-02-08T13:06:25.798Z,21.63
2023-02-08T13:07:33.599Z,20.35
2023-02-08T13:08:44.391Z,21.50
2023-02-08T13:11:10.729Z,22.52
2023-02-08T13:12:27.170Z,20.88
2023-02-08T13:13:34.013Z,20.63
2023-02-08T13:14:44.765Z,20.83
2023-02-08T13:16:59.741Z,20.58
2023-02-08T13:18:12.320Z,20.23
2023-02-08T13:19:30.033Z,20.40
2023-02-08T13:20:42.451Z,20.85
2023-02-08T13:21:45.920Z,20.45
2023-02-08T13:22:50.090Z,21.92
2023-02-08T13:23:53.752Z,20.20
2023-02-08T13:25:07.121Z,21.25
2023-02-08T13:26:16.707Z,21.88
2023-02-08T13:27:22.219Z,19.95
2023-02-08T13:28:30.327Z,20.67
2023-02-08T13:29:33.852Z,20.55
2023-02-08T13:30:40.267Z,21.05
2023-02-08T13:31:46.379Z,21.20
2023-02-08T13:32:52.492Z,20.13
2023-02-08T13:34:02.150Z,20.10
2023-02-08T13:35:09.190Z,18.57
2023-02-08T13:36:22.524Z,19.85
2023-02-08T13:37:31.448Z,20.08
2023-02-08T13:38:36.524Z,20.83
2023-02-08T13:39:42.380Z,18.95
2023-02-08T13:40:46.463Z,19.17
2023-02-08T13:41:55.183Z,19.65
2023-02-08T13:43:02.462Z,17.45
2023-02-08T13:44:07.090Z,17.20
2023-02-08T13:45:11.013Z,17.15
2023-02-08T13:46:14.453Z,15.57
2023-02-08T13:47:28.732Z,14.23
2023-02-08T13:48:44.370Z,13.50
2023-02-08T13:49:59.942Z,14.05
2023-02-08T13:51:03.329Z,14.13
2023-02-08T13:52:06.252Z,14.50
2023-02-08T13:53:08.995Z,13.60
2023-02-08T13:54:14.429Z,13.70
2023-02-08T13:55:44.241Z,14.10
2023-02-08T13:56:49.478Z,14.07
2023-02-08T13:57:55.908Z,15.20
2023-02-08T13:59:01.521Z,16.73
2023-02-08T14:00:25.493Z,17.15
2023-02-08T14:01:30.470Z,16.90
2023-02-08T14:02:33.240Z,18.65
2023-02-08T14:03:35.491Z,19.70
2023-02-08T14:04:39.598Z,17.65
2023-02-08T14:05:49.096Z,18.95
2023-02-08T14:06:56.333Z,17.25
2023-02-08T14:08:00.631Z,18.27
2023-02-08T14:09:11.971Z,17.00
2023-02-08T14:10:37.462Z,17.50
2023-02-08T14:11:46.365Z,19.88
2023-02-08T14:12:59.483Z,16.73
2023-02-08T14:14:05.104Z,17.17
2023-02-08T14:15:36.733Z,16.05
2023-02-08T14:16:40.824Z,16.20
2023-02-08T14:17:43.566Z,16.42
2023-02-08T14:18:53.197Z,16.48
2023-02-08T14:20:00.527Z,16.40
2023-02-08T14:21:05.807Z,14.98